sensor_id;sensor_type;location;lat;lon;timestamp;P1;durP1;ratioP1;P2;durP2;ratioP2
65665;SDS011;52365;47.464;18.976;2022-07-05T00:00:06;3.00;;;1.50;;
65665;SDS011;52365;47.464;18.976;2022-07-05T00:00:43;4.60;;;1.58;;
65665;SDS011;52365;47.464;18.976;2022-07-05T00:01:19;6.28;;;1.52;;
65665;SDS011;52365;47.464;18.976;2022-07-05T00:01:55;3.12;;;1.55;;
65665;SDS011;52365;47.464;18.976;2022-07-05T00:02:31;5.90;;;1.70;;
65665;SDS011;52365;47.464;18.976;2022-07-05T00:03:07;1.98;;;1.48;;
65665;SDS011;52365;47.464;18.976;2022-07-05T00:03:44;2.78;;;1.45;;
65665;SDS011;52365;47.464;18.976;2022-07-05T00:04:20;2.75;;;1.60;;
65665;SDS011;52365;47.464;18.976;2022-07-05T00:04:56;2.97;;;1.52;;
65665;SDS011;52365;47.464;18.976;2022-07-05T00:05:32;4.45;;;1.65;;
65665;SDS011;52365;47.464;18.976;2022-07-05T00:06:08;3.10;;;1.90;;
65665;SDS011;52365;47.464;18.976;2022-07-05T00:06:44;4.07;;;1.85;;
65665;SDS011;52365;47.464;18.976;2022-07-05T00:07:39;4.03;;;1.55;;
65665;SDS011;52365;47.464;18.976;2022-07-05T00:08:16;5.03;;;1.95;;
65665;SDS011;52365;47.464;18.976;2022-07-05T00:08:52;3.30;;;1.52;;
65665;SDS011;52365;47.464;18.976;2022-07-05T00:09:28;3.35;;;1.55;;
65665;SDS011;52365;47.464;18.976;2022-07-05T00:10:04;2.80;;;1.52;;
65665;SDS011;52365;47.464;18.976;2022-07-05T00:10:41;5.30;;;1.67;;
65665;SDS011;52365;47.464;18.976;2022-07-05T00:11:18;4.10;;;1.50;;
65665;SDS011;52365;47.464;18.976;2022-07-05T00:11:54;2.97;;;1.80;;
65665;SDS011;52365;47.464;18.976;2022-07-05T00:12:31;3.12;;;1.52;;
65665;SDS011;52365;47.464;18.976;2022-07-05T00:13:08;2.12;;;1.30;;
65665;SDS011;52365;47.464;18.976;2022-07-05T00:13:44;3.65;;;1.70;;
65665;SDS011;52365;47.464;18.976;2022-07-05T00:14:20;3.00;;;1.47;;
65665;SDS011;52365;47.464;18.976;2022-07-05T00:14:57;2.30;;;1.42;;
65665;SDS011;52365;47.464;18.976;2022-07-05T00:15:33;3.65;;;1.40;;
65665;SDS011;52365;47.464;18.976;2022-07-05T00:16:10;2.72;;;1.50;;
65665;SDS011;52365;47.464;18.976;2022-07-05T00:16:46;2.60;;;1.50;;
65665;SDS011;52365;47.464;18.976;2022-07-05T00:17:22;2.80;;;1.40;;
65665;SDS011;52365;47.464;18.976;2022-07-05T00:17:58;4.03;;;1.40;;
65665;SDS011;52365;47.464;18.976;2022-07-05T00:18:34;2.30;;;1.45;;
65665;SDS011;52365;47.464;18.976;2022-07-05T00:19:10;1.92;;;1.50;;
65665;SDS011;52365;47.464;18.976;2022-07-05T00:19:46;4.10;;;1.45;;
65665;SDS011;52365;47.464;18.976;2022-07-05T00:20:22;2.85;;;1.60;;
65665;SDS011;52365;47.464;18.976;2022-07-05T00:20:59;4.22;;;1.50;;
65665;SDS011;52365;47.464;18.976;2022-07-05T00:21:35;2.60;;;1.40;;
65665;SDS011;52365;47.464;18.976;2022-07-05T00:22:11;4.95;;;1.70;;
65665;SDS011;52365;47.464;18.976;2022-07-05T00:22:47;3.85;;;1.45;;
65665;SDS011;52365;47.464;18.976;2022-07-05T00:23:23;3.78;;;1.50;;
65665;SDS011;52365;47.464;18.976;2022-07-05T00:23:59;3.12;;;1.40;;
65665;SDS011;52365;47.464;18.976;2022-07-05T00:24:35;2.75;;;1.40;;
65665;SDS011;52365;47.464;18.976;2022-07-05T00:25:11;2.37;;;1.50;;
65665;SDS011;52365;47.464;18.976;2022-07-05T00:25:47;1.92;;;1.30;;
65665;SDS011;52365;47.464;18.976;2022-07-05T00:26:24;3.70;;;1.95;;
65665;SDS011;52365;47.464;18.976;2022-07-05T00:27:00;5.43;;;3.78;;
65665;SDS011;52365;47.464;18.976;2022-07-05T00:27:36;7.78;;;5.22;;
65665;SDS011;52365;47.464;18.976;2022-07-05T00:28:12;5.75;;;3.70;;
65665;SDS011;52365;47.464;18.976;2022-07-05T00:28:50;7.18;;;3.92;;
65665;SDS011;52365;47.464;18.976;2022-07-05T00:29:26;4.12;;;3.15;;
65665;SDS011;52365;47.464;18.976;2022-07-05T00:30:03;3.75;;;2.55;;
65665;SDS011;52365;47.464;18.976;2022-07-05T00:30:41;2.17;;;1.90;;
65665;SDS011;52365;47.464;18.976;2022-07-05T00:31:17;2.92;;;1.50;;
65665;SDS011;52365;47.464;18.976;2022-07-05T00:31:54;2.78;;;1.37;;
65665;SDS011;52365;47.464;18.976;2022-07-05T00:32:30;2.22;;;1.40;;
65665;SDS011;52365;47.464;18.976;2022-07-05T00:33:06;3.20;;;1.30;;
65665;SDS011;52365;47.464;18.976;2022-07-05T00:33:42;3.90;;;1.42;;
65665;SDS011;52365;47.464;18.976;2022-07-05T00:34:18;2.55;;;1.40;;
65665;SDS011;52365;47.464;18.976;2022-07-05T00:34:54;1.92;;;1.30;;
65665;SDS011;52365;47.464;18.976;2022-07-05T00:35:30;2.70;;;1.50;;
65665;SDS011;52365;47.464;18.976;2022-07-05T00:36:06;2.83;;;1.23;;
65665;SDS011;52365;47.464;18.976;2022-07-05T00:36:43;2.40;;;1.25;;
65665;SDS011;52365;47.464;18.976;2022-07-05T00:37:19;4.82;;;1.40;;
65665;SDS011;52365;47.464;18.976;2022-07-05T00:37:55;4.07;;;1.33;;
65665;SDS011;52365;47.464;18.976;2022-07-05T00:38:31;2.90;;;1.30;;
65665;SDS011;52365;47.464;18.976;2022-07-05T00:39:07;2.85;;;1.23;;
65665;SDS011;52365;47.464;18.976;2022-07-05T00:39:43;3.25;;;1.40;;
65665;SDS011;52365;47.464;18.976;2022-07-05T00:40:20;2.40;;;1.30;;
65665;SDS011;52365;47.464;18.976;2022-07-05T00:40:56;2.85;;;1.30;;
65665;SDS011;52365;47.464;18.976;2022-07-05T00:41:32;1.70;;;1.30;;
65665;SDS011;52365;47.464;18.976;2022-07-05T00:42:08;3.00;;;1.30;;
65665;SDS011;52365;47.464;18.976;2022-07-05T00:42:44;2.28;;;1.30;;
65665;SDS011;52365;47.464;18.976;2022-07-05T00:43:21;3.87;;;1.50;;
65665;SDS011;52365;47.464;18.976;2022-07-05T00:43:57;3.20;;;1.30;;
65665;SDS011;52365;47.464;18.976;2022-07-05T00:44:38;2.50;;;1.30;;
65665;SDS011;52365;47.464;18.976;2022-07-05T00:45:16;2.60;;;1.20;;
65665;SDS011;52365;47.464;18.976;2022-07-05T00:45:53;2.80;;;1.40;;
65665;SDS011;52365;47.464;18.976;2022-07-05T00:46:29;2.90;;;1.40;;
65665;SDS011;52365;47.464;18.976;2022-07-05T00:47:05;2.30;;;1.37;;
65665;SDS011;52365;47.464;18.976;2022-07-05T00:47:41;2.62;;;1.30;;
65665;SDS011;52365;47.464;18.976;2022-07-05T00:48:18;3.28;;;1.48;;
65665;SDS011;52365;47.464;18.976;2022-07-05T00:48:54;2.37;;;1.20;;
65665;SDS011;52365;47.464;18.976;2022-07-05T00:49:30;1.75;;;1.30;;
65665;SDS011;52365;47.464;18.976;2022-07-05T00:50:07;4.25;;;1.30;;
65665;SDS011;52365;47.464;18.976;2022-07-05T00:50:43;2.60;;;1.30;;
65665;SDS011;52365;47.464;18.976;2022-07-05T00:51:20;3.70;;;1.40;;
65665;SDS011;52365;47.464;18.976;2022-07-05T00:51:58;1.80;;;1.20;;
65665;SDS011;52365;47.464;18.976;2022-07-05T00:52:35;3.15;;;1.30;;
65665;SDS011;52365;47.464;18.976;2022-07-05T00:53:11;4.10;;;1.37;;
65665;SDS011;52365;47.464;18.976;2022-07-05T00:53:48;2.20;;;1.30;;
65665;SDS011;52365;47.464;18.976;2022-07-05T00:54:25;3.58;;;1.30;;
65665;SDS011;52365;47.464;18.976;2022-07-05T00:55:02;2.62;;;1.20;;
65665;SDS011;52365;47.464;18.976;2022-07-05T00:55:38;1.92;;;1.20;;
65665;SDS011;52365;47.464;18.976;2022-07-05T00:56:15;2.25;;;1.33;;
65665;SDS011;52365;47.464;18.976;2022-07-05T00:56:52;1.80;;;1.25;;
65665;SDS011;52365;47.464;18.976;2022-07-05T00:57:29;1.77;;;1.23;;
65665;SDS011;52365;47.464;18.976;2022-07-05T00:58:06;1.73;;;1.27;;
65665;SDS011;52365;47.464;18.976;2022-07-05T00:58:42;2.62;;;1.30;;
65665;SDS011;52365;47.464;18.976;2022-07-05T00:59:18;2.05;;;1.40;;
65665;SDS011;52365;47.464;18.976;2022-07-05T00:59:55;2.60;;;1.33;;
65665;SDS011;52365;47.464;18.976;2022-07-05T01:00:31;1.98;;;1.20;;
65665;SDS011;52365;47.464;18.976;2022-07-05T01:01:08;2.00;;;1.20;;
65665;SDS011;52365;47.464;18.976;2022-07-05T01:01:45;2.80;;;1.20;;
65665;SDS011;52365;47.464;18.976;2022-07-05T01:02:21;2.80;;;1.42;;
65665;SDS011;52365;47.464;18.976;2022-07-05T01:02:59;1.92;;;1.20;;
65665;SDS011;52365;47.464;18.976;2022-07-05T01:03:35;2.45;;;1.30;;
65665;SDS011;52365;47.464;18.976;2022-07-05T01:04:11;2.80;;;1.60;;
65665;SDS011;52365;47.464;18.976;2022-07-05T01:04:48;1.40;;;1.20;;
65665;SDS011;52365;47.464;18.976;2022-07-05T01:05:25;2.20;;;1.20;;
65665;SDS011;52365;47.464;18.976;2022-07-05T01:06:02;2.15;;;1.30;;
65665;SDS011;52365;47.464;18.976;2022-07-05T01:06:42;2.83;;;1.40;;
65665;SDS011;52365;47.464;18.976;2022-07-05T01:07:21;1.20;;;1.00;;
65665;SDS011;52365;47.464;18.976;2022-07-05T01:07:59;2.30;;;1.40;;
65665;SDS011;52365;47.464;18.976;2022-07-05T01:08:38;3.10;;;1.30;;
65665;SDS011;52365;47.464;18.976;2022-07-05T01:09:16;2.00;;;1.30;;
65665;SDS011;52365;47.464;18.976;2022-07-05T01:09:54;2.60;;;1.20;;
65665;SDS011;52365;47.464;18.976;2022-07-05T01:10:30;3.80;;;1.30;;
65665;SDS011;52365;47.464;18.976;2022-07-05T01:11:10;2.20;;;1.23;;
65665;SDS011;52365;47.464;18.976;2022-07-05T01:11:47;2.67;;;1.30;;
65665;SDS011;52365;47.464;18.976;2022-07-05T01:12:25;2.00;;;1.30;;
65665;SDS011;52365;47.464;18.976;2022-07-05T01:13:01;2.10;;;1.15;;
65665;SDS011;52365;47.464;18.976;2022-07-05T01:13:37;2.00;;;1.20;;
65665;SDS011;52365;47.464;18.976;2022-07-05T01:14:16;2.37;;;1.40;;
65665;SDS011;52365;47.464;18.976;2022-07-05T01:14:53;2.05;;;1.30;;
65665;SDS011;52365;47.464;18.976;2022-07-05T01:15:31;2.60;;;1.20;;
65665;SDS011;52365;47.464;18.976;2022-07-05T01:16:09;1.50;;;1.20;;
65665;SDS011;52365;47.464;18.976;2022-07-05T01:16:45;2.35;;;1.23;;
65665;SDS011;52365;47.464;18.976;2022-07-05T01:17:22;2.28;;;1.05;;
65665;SDS011;52365;47.464;18.976;2022-07-05T01:17:58;2.20;;;1.20;;
65665;SDS011;52365;47.464;18.976;2022-07-05T01:18:35;2.22;;;1.30;;
65665;SDS011;52365;47.464;18.976;2022-07-05T01:19:12;3.05;;;1.25;;
65665;SDS011;52365;47.464;18.976;2022-07-05T01:19:49;1.98;;;1.35;;
65665;SDS011;52365;47.464;18.976;2022-07-05T01:20:27;1.67;;;1.20;;
65665;SDS011;52365;47.464;18.976;2022-07-05T01:21:04;2.53;;;1.30;;
65665;SDS011;52365;47.464;18.976;2022-07-05T01:21:41;2.80;;;1.12;;
65665;SDS011;52365;47.464;18.976;2022-07-05T01:22:19;2.62;;;1.33;;
65665;SDS011;52365;47.464;18.976;2022-07-05T01:22:58;2.75;;;1.20;;
65665;SDS011;52365;47.464;18.976;2022-07-05T01:23:35;2.45;;;1.20;;
65665;SDS011;52365;47.464;18.976;2022-07-05T01:24:12;2.37;;;1.30;;
65665;SDS011;52365;47.464;18.976;2022-07-05T01:24:49;1.73;;;1.23;;
65665;SDS011;52365;47.464;18.976;2022-07-05T01:25:27;1.87;;;1.20;;
65665;SDS011;52365;47.464;18.976;2022-07-05T01:26:04;2.78;;;1.27;;
65665;SDS011;52365;47.464;18.976;2022-07-05T01:26:44;2.60;;;1.10;;
65665;SDS011;52365;47.464;18.976;2022-07-05T01:27:23;1.70;;;1.23;;
65665;SDS011;52365;47.464;18.976;2022-07-05T01:27:59;3.00;;;1.27;;
65665;SDS011;52365;47.464;18.976;2022-07-05T01:28:39;4.97;;;1.20;;
65665;SDS011;52365;47.464;18.976;2022-07-05T01:29:15;1.65;;;1.33;;
65665;SDS011;52365;47.464;18.976;2022-07-05T01:29:52;2.55;;;1.37;;
65665;SDS011;52365;47.464;18.976;2022-07-05T01:30:28;2.10;;;1.20;;
65665;SDS011;52365;47.464;18.976;2022-07-05T01:31:04;1.85;;;1.20;;
65665;SDS011;52365;47.464;18.976;2022-07-05T01:31:40;2.12;;;1.20;;
65665;SDS011;52365;47.464;18.976;2022-07-05T01:32:17;2.80;;;1.30;;
65665;SDS011;52365;47.464;18.976;2022-07-05T01:32:53;3.37;;;1.20;;
65665;SDS011;52365;47.464;18.976;2022-07-05T01:33:29;2.53;;;1.20;;
65665;SDS011;52365;47.464;18.976;2022-07-05T01:34:06;2.10;;;1.25;;
65665;SDS011;52365;47.464;18.976;2022-07-05T01:34:42;3.45;;;1.17;;
65665;SDS011;52365;47.464;18.976;2022-07-05T01:35:19;1.35;;;1.20;;
65665;SDS011;52365;47.464;18.976;2022-07-05T01:35:58;3.10;;;2.33;;
65665;SDS011;52365;47.464;18.976;2022-07-05T01:36:35;2.55;;;1.55;;
65665;SDS011;52365;47.464;18.976;2022-07-05T01:37:12;2.95;;;2.20;;
65665;SDS011;52365;47.464;18.976;2022-07-05T01:37:49;4.90;;;2.47;;
65665;SDS011;52365;47.464;18.976;2022-07-05T01:38:27;6.45;;;3.72;;
65665;SDS011;52365;47.464;18.976;2022-07-05T01:39:03;3.95;;;3.00;;
65665;SDS011;52365;47.464;18.976;2022-07-05T01:39:41;4.28;;;3.03;;
65665;SDS011;52365;47.464;18.976;2022-07-05T01:40:18;3.87;;;2.15;;
65665;SDS011;52365;47.464;18.976;2022-07-05T01:40:55;3.75;;;1.50;;
65665;SDS011;52365;47.464;18.976;2022-07-05T01:41:32;1.70;;;1.33;;
65665;SDS011;52365;47.464;18.976;2022-07-05T01:42:08;2.72;;;1.17;;
65665;SDS011;52365;47.464;18.976;2022-07-05T01:42:44;2.70;;;1.20;;
65665;SDS011;52365;47.464;18.976;2022-07-05T01:43:21;1.80;;;1.30;;
65665;SDS011;52365;47.464;18.976;2022-07-05T01:43:58;1.83;;;1.12;;
65665;SDS011;52365;47.464;18.976;2022-07-05T01:44:35;2.30;;;1.30;;
65665;SDS011;52365;47.464;18.976;2022-07-05T01:45:11;1.60;;;1.12;;
65665;SDS011;52365;47.464;18.976;2022-07-05T01:45:48;1.70;;;1.02;;
65665;SDS011;52365;47.464;18.976;2022-07-05T01:46:24;1.48;;;1.10;;
65665;SDS011;52365;47.464;18.976;2022-07-05T01:47:06;3.17;;;1.10;;
65665;SDS011;52365;47.464;18.976;2022-07-05T01:47:43;1.60;;;1.00;;
65665;SDS011;52365;47.464;18.976;2022-07-05T01:48:20;2.42;;;1.02;;
65665;SDS011;52365;47.464;18.976;2022-07-05T01:48:58;1.60;;;1.20;;
65665;SDS011;52365;47.464;18.976;2022-07-05T01:49:41;1.58;;;1.20;;
65665;SDS011;52365;47.464;18.976;2022-07-05T01:50:21;2.03;;;1.20;;
65665;SDS011;52365;47.464;18.976;2022-07-05T01:51:00;1.75;;;1.20;;
65665;SDS011;52365;47.464;18.976;2022-07-05T01:51:49;1.80;;;1.17;;
65665;SDS011;52365;47.464;18.976;2022-07-05T01:52:30;2.58;;;1.10;;
65665;SDS011;52365;47.464;18.976;2022-07-05T01:53:08;1.95;;;1.00;;
65665;SDS011;52365;47.464;18.976;2022-07-05T01:53:50;2.67;;;1.20;;
65665;SDS011;52365;47.464;18.976;2022-07-05T01:54:28;1.77;;;1.30;;
65665;SDS011;52365;47.464;18.976;2022-07-05T01:55:04;2.67;;;1.10;;
65665;SDS011;52365;47.464;18.976;2022-07-05T01:55:41;1.90;;;1.10;;
65665;SDS011;52365;47.464;18.976;2022-07-05T01:56:17;1.20;;;1.10;;
65665;SDS011;52365;47.464;18.976;2022-07-05T01:56:53;2.30;;;1.00;;
65665;SDS011;52365;47.464;18.976;2022-07-05T01:57:29;1.42;;;1.00;;
65665;SDS011;52365;47.464;18.976;2022-07-05T01:58:05;3.05;;;1.30;;
65665;SDS011;52365;47.464;18.976;2022-07-05T01:58:43;1.33;;;1.00;;
65665;SDS011;52365;47.464;18.976;2022-07-05T01:59:20;2.75;;;1.12;;
65665;SDS011;52365;47.464;18.976;2022-07-05T01:59:56;2.10;;;1.30;;
65665;SDS011;52365;47.464;18.976;2022-07-05T02:00:41;1.42;;;1.10;;
65665;SDS011;52365;47.464;18.976;2022-07-05T02:01:37;1.87;;;1.10;;
65665;SDS011;52365;47.464;18.976;2022-07-05T02:02:14;2.28;;;1.10;;
65665;SDS011;52365;47.464;18.976;2022-07-05T02:02:50;1.77;;;1.20;;
65665;SDS011;52365;47.464;18.976;2022-07-05T02:03:27;2.33;;;1.40;;
65665;SDS011;52365;47.464;18.976;2022-07-05T02:04:04;2.05;;;1.20;;
65665;SDS011;52365;47.464;18.976;2022-07-05T02:04:42;1.48;;;1.10;;
65665;SDS011;52365;47.464;18.976;2022-07-05T02:05:18;2.50;;;1.25;;
65665;SDS011;52365;47.464;18.976;2022-07-05T02:05:54;1.75;;;1.10;;
65665;SDS011;52365;47.464;18.976;2022-07-05T02:06:30;2.17;;;1.23;;
65665;SDS011;52365;47.464;18.976;2022-07-05T02:07:08;2.55;;;1.20;;
65665;SDS011;52365;47.464;18.976;2022-07-05T02:07:48;2.50;;;1.12;;
65665;SDS011;52365;47.464;18.976;2022-07-05T02:08:29;1.70;;;1.10;;
65665;SDS011;52365;47.464;18.976;2022-07-05T02:09:06;2.25;;;1.20;;
65665;SDS011;52365;47.464;18.976;2022-07-05T02:09:42;1.70;;;1.20;;
65665;SDS011;52365;47.464;18.976;2022-07-05T02:10:19;1.92;;;1.20;;
65665;SDS011;52365;47.464;18.976;2022-07-05T02:10:55;2.03;;;1.10;;
65665;SDS011;52365;47.464;18.976;2022-07-05T02:11:31;1.67;;;1.10;;
65665;SDS011;52365;47.464;18.976;2022-07-05T02:12:07;2.05;;;1.25;;
65665;SDS011;52365;47.464;18.976;2022-07-05T02:12:44;3.45;;;1.27;;
65665;SDS011;52365;47.464;18.976;2022-07-05T02:13:20;2.25;;;1.30;;
65665;SDS011;52365;47.464;18.976;2022-07-05T02:13:57;2.35;;;1.20;;
65665;SDS011;52365;47.464;18.976;2022-07-05T02:14:33;2.25;;;1.20;;
65665;SDS011;52365;47.464;18.976;2022-07-05T02:15:09;1.85;;;1.30;;
65665;SDS011;52365;47.464;18.976;2022-07-05T02:15:46;2.50;;;1.23;;
65665;SDS011;52365;47.464;18.976;2022-07-05T02:16:22;1.70;;;1.20;;
65665;SDS011;52365;47.464;18.976;2022-07-05T02:17:00;2.47;;;1.50;;
65665;SDS011;52365;47.464;18.976;2022-07-05T02:17:37;2.45;;;1.33;;
65665;SDS011;52365;47.464;18.976;2022-07-05T02:18:13;1.67;;;1.20;;
65665;SDS011;52365;47.464;18.976;2022-07-05T02:18:49;2.33;;;1.27;;
65665;SDS011;52365;47.464;18.976;2022-07-05T02:19:25;1.60;;;1.20;;
65665;SDS011;52365;47.464;18.976;2022-07-05T02:20:01;2.37;;;1.20;;
65665;SDS011;52365;47.464;18.976;2022-07-05T02:20:39;2.45;;;1.20;;
65665;SDS011;52365;47.464;18.976;2022-07-05T02:21:15;2.90;;;1.20;;
65665;SDS011;52365;47.464;18.976;2022-07-05T02:21:51;2.35;;;1.23;;
65665;SDS011;52365;47.464;18.976;2022-07-05T02:22:27;1.85;;;1.10;;
65665;SDS011;52365;47.464;18.976;2022-07-05T02:23:04;2.37;;;1.20;;
65665;SDS011;52365;47.464;18.976;2022-07-05T02:23:40;2.78;;;1.30;;
65665;SDS011;52365;47.464;18.976;2022-07-05T02:24:16;2.17;;;1.20;;
65665;SDS011;52365;47.464;18.976;2022-07-05T02:24:52;2.37;;;1.30;;
65665;SDS011;52365;47.464;18.976;2022-07-05T02:25:28;2.75;;;1.20;;
65665;SDS011;52365;47.464;18.976;2022-07-05T02:26:04;2.40;;;1.30;;
65665;SDS011;52365;47.464;18.976;2022-07-05T02:26:41;2.15;;;1.30;;
65665;SDS011;52365;47.464;18.976;2022-07-05T02:27:17;2.75;;;1.30;;
65665;SDS011;52365;47.464;18.976;2022-07-05T02:27:53;2.17;;;1.15;;
65665;SDS011;52365;47.464;18.976;2022-07-05T02:28:29;3.40;;;1.37;;
65665;SDS011;52365;47.464;18.976;2022-07-05T02:29:06;2.60;;;1.27;;
65665;SDS011;52365;47.464;18.976;2022-07-05T02:29:42;1.85;;;1.30;;
65665;SDS011;52365;47.464;18.976;2022-07-05T02:30:18;2.72;;;1.20;;
65665;SDS011;52365;47.464;18.976;2022-07-05T02:30:54;2.83;;;1.40;;
65665;SDS011;52365;47.464;18.976;2022-07-05T02:31:31;3.03;;;1.23;;
65665;SDS011;52365;47.464;18.976;2022-07-05T02:32:07;1.80;;;1.20;;
65665;SDS011;52365;47.464;18.976;2022-07-05T02:32:43;2.03;;;1.20;;
65665;SDS011;52365;47.464;18.976;2022-07-05T02:33:19;2.42;;;1.20;;
65665;SDS011;52365;47.464;18.976;2022-07-05T02:33:55;1.73;;;1.17;;
65665;SDS011;52365;47.464;18.976;2022-07-05T02:34:31;1.85;;;1.10;;
65665;SDS011;52365;47.464;18.976;2022-07-05T02:35:08;1.80;;;1.12;;
65665;SDS011;52365;47.464;18.976;2022-07-05T02:35:45;3.37;;;1.27;;
65665;SDS011;52365;47.464;18.976;2022-07-05T02:36:21;2.40;;;1.23;;
65665;SDS011;52365;47.464;18.976;2022-07-05T02:36:57;1.60;;;1.20;;
65665;SDS011;52365;47.464;18.976;2022-07-05T02:37:34;1.50;;;1.20;;
65665;SDS011;52365;47.464;18.976;2022-07-05T02:38:10;2.67;;;1.40;;
65665;SDS011;52365;47.464;18.976;2022-07-05T02:38:46;3.10;;;1.20;;
65665;SDS011;52365;47.464;18.976;2022-07-05T02:39:23;1.65;;;1.23;;
65665;SDS011;52365;47.464;18.976;2022-07-05T02:39:59;2.20;;;1.30;;
65665;SDS011;52365;47.464;18.976;2022-07-05T02:40:35;3.03;;;1.48;;
65665;SDS011;52365;47.464;18.976;2022-07-05T02:41:12;1.30;;;1.12;;
65665;SDS011;52365;47.464;18.976;2022-07-05T02:41:48;2.17;;;1.20;;
65665;SDS011;52365;47.464;18.976;2022-07-05T02:42:24;1.90;;;1.30;;
65665;SDS011;52365;47.464;18.976;2022-07-05T02:43:00;2.60;;;1.20;;
65665;SDS011;52365;47.464;18.976;2022-07-05T02:43:36;1.70;;;1.20;;
65665;SDS011;52365;47.464;18.976;2022-07-05T02:44:13;2.67;;;1.20;;
65665;SDS011;52365;47.464;18.976;2022-07-05T02:44:49;2.40;;;1.33;;
65665;SDS011;52365;47.464;18.976;2022-07-05T02:45:26;2.00;;;1.17;;
65665;SDS011;52365;47.464;18.976;2022-07-05T02:46:02;2.50;;;1.20;;
65665;SDS011;52365;47.464;18.976;2022-07-05T02:46:39;4.10;;;1.37;;
65665;SDS011;52365;47.464;18.976;2022-07-05T02:47:15;2.60;;;1.23;;
65665;SDS011;52365;47.464;18.976;2022-07-05T02:47:51;2.92;;;1.30;;
65665;SDS011;52365;47.464;18.976;2022-07-05T02:48:27;2.40;;;1.25;;
65665;SDS011;52365;47.464;18.976;2022-07-05T02:49:03;2.30;;;1.35;;
65665;SDS011;52365;47.464;18.976;2022-07-05T02:49:40;2.70;;;1.40;;
65665;SDS011;52365;47.464;18.976;2022-07-05T02:50:16;1.40;;;1.00;;
65665;SDS011;52365;47.464;18.976;2022-07-05T02:50:52;3.00;;;1.20;;
65665;SDS011;52365;47.464;18.976;2022-07-05T02:51:28;2.00;;;1.20;;
65665;SDS011;52365;47.464;18.976;2022-07-05T02:52:04;2.28;;;1.27;;
65665;SDS011;52365;47.464;18.976;2022-07-05T02:52:40;2.15;;;1.20;;
65665;SDS011;52365;47.464;18.976;2022-07-05T02:53:16;1.65;;;1.27;;
65665;SDS011;52365;47.464;18.976;2022-07-05T02:53:52;1.62;;;1.20;;
65665;SDS011;52365;47.464;18.976;2022-07-05T02:54:28;2.70;;;1.27;;
65665;SDS011;52365;47.464;18.976;2022-07-05T02:55:05;3.05;;;1.20;;
65665;SDS011;52365;47.464;18.976;2022-07-05T02:55:41;2.17;;;1.40;;
65665;SDS011;52365;47.464;18.976;2022-07-05T02:56:17;1.73;;;1.10;;
65665;SDS011;52365;47.464;18.976;2022-07-05T02:56:54;2.30;;;1.23;;
65665;SDS011;52365;47.464;18.976;2022-07-05T02:57:30;3.22;;;1.23;;
65665;SDS011;52365;47.464;18.976;2022-07-05T02:58:06;1.80;;;1.40;;
65665;SDS011;52365;47.464;18.976;2022-07-05T02:58:42;2.10;;;1.30;;
65665;SDS011;52365;47.464;18.976;2022-07-05T02:59:18;2.30;;;1.27;;
65665;SDS011;52365;47.464;18.976;2022-07-05T02:59:54;2.50;;;1.37;;
65665;SDS011;52365;47.464;18.976;2022-07-05T03:00:31;2.00;;;1.30;;
65665;SDS011;52365;47.464;18.976;2022-07-05T03:01:07;2.60;;;1.20;;
65665;SDS011;52365;47.464;18.976;2022-07-05T03:01:43;2.75;;;1.40;;
65665;SDS011;52365;47.464;18.976;2022-07-05T03:02:20;2.25;;;1.25;;
65665;SDS011;52365;47.464;18.976;2022-07-05T03:02:57;1.90;;;1.35;;
65665;SDS011;52365;47.464;18.976;2022-07-05T03:03:33;2.33;;;1.60;;
65665;SDS011;52365;47.464;18.976;2022-07-05T03:04:09;1.90;;;1.30;;
65665;SDS011;52365;47.464;18.976;2022-07-05T03:04:45;2.20;;;1.40;;
65665;SDS011;52365;47.464;18.976;2022-07-05T03:05:22;2.70;;;1.30;;
65665;SDS011;52365;47.464;18.976;2022-07-05T03:05:58;1.50;;;1.20;;
65665;SDS011;52365;47.464;18.976;2022-07-05T03:06:34;3.03;;;1.48;;
65665;SDS011;52365;47.464;18.976;2022-07-05T03:07:10;2.92;;;1.42;;
65665;SDS011;52365;47.464;18.976;2022-07-05T03:07:46;1.83;;;1.20;;
65665;SDS011;52365;47.464;18.976;2022-07-05T03:08:22;2.05;;;1.20;;
65665;SDS011;52365;47.464;18.976;2022-07-05T03:08:58;1.80;;;1.10;;
65665;SDS011;52365;47.464;18.976;2022-07-05T03:09:34;1.85;;;1.35;;
65665;SDS011;52365;47.464;18.976;2022-07-05T03:10:11;4.00;;;1.40;;
65665;SDS011;52365;47.464;18.976;2022-07-05T03:10:47;2.35;;;1.40;;
65665;SDS011;52365;47.464;18.976;2022-07-05T03:11:23;2.35;;;1.33;;
65665;SDS011;52365;47.464;18.976;2022-07-05T03:11:59;2.70;;;1.30;;
65665;SDS011;52365;47.464;18.976;2022-07-05T03:12:35;2.60;;;1.33;;
65665;SDS011;52365;47.464;18.976;2022-07-05T03:13:11;2.28;;;1.50;;
65665;SDS011;52365;47.464;18.976;2022-07-05T03:13:47;3.70;;;1.30;;
65665;SDS011;52365;47.464;18.976;2022-07-05T03:14:23;2.87;;;1.40;;
65665;SDS011;52365;47.464;18.976;2022-07-05T03:15:00;2.70;;;1.45;;
65665;SDS011;52365;47.464;18.976;2022-07-05T03:15:36;2.25;;;1.33;;
65665;SDS011;52365;47.464;18.976;2022-07-05T03:16:13;2.67;;;1.30;;
65665;SDS011;52365;47.464;18.976;2022-07-05T03:16:49;2.10;;;1.30;;
65665;SDS011;52365;47.464;18.976;2022-07-05T03:17:25;2.37;;;1.20;;
65665;SDS011;52365;47.464;18.976;2022-07-05T03:18:01;1.75;;;1.20;;
65665;SDS011;52365;47.464;18.976;2022-07-05T03:18:38;3.47;;;1.50;;
65665;SDS011;52365;47.464;18.976;2022-07-05T03:19:14;3.58;;;1.35;;
65665;SDS011;52365;47.464;18.976;2022-07-05T03:19:50;1.98;;;1.00;;
65665;SDS011;52365;47.464;18.976;2022-07-05T03:20:26;1.70;;;1.20;;
65665;SDS011;52365;47.464;18.976;2022-07-05T03:21:02;2.35;;;1.40;;
65665;SDS011;52365;47.464;18.976;2022-07-05T03:21:38;1.95;;;1.30;;
65665;SDS011;52365;47.464;18.976;2022-07-05T03:22:14;1.70;;;1.15;;
65665;SDS011;52365;47.464;18.976;2022-07-05T03:22:50;2.78;;;1.17;;
65665;SDS011;52365;47.464;18.976;2022-07-05T03:23:26;1.67;;;1.23;;
65665;SDS011;52365;47.464;18.976;2022-07-05T03:24:02;2.12;;;1.25;;
65665;SDS011;52365;47.464;18.976;2022-07-05T03:24:39;3.85;;;1.35;;
65665;SDS011;52365;47.464;18.976;2022-07-05T03:25:15;2.10;;;1.30;;
65665;SDS011;52365;47.464;18.976;2022-07-05T03:25:51;3.28;;;1.20;;
65665;SDS011;52365;47.464;18.976;2022-07-05T03:26:27;2.15;;;1.37;;
65665;SDS011;52365;47.464;18.976;2022-07-05T03:27:03;2.20;;;1.35;;
65665;SDS011;52365;47.464;18.976;2022-07-05T03:27:39;2.25;;;1.60;;
65665;SDS011;52365;47.464;18.976;2022-07-05T03:28:15;4.15;;;1.30;;
65665;SDS011;52365;47.464;18.976;2022-07-05T03:28:51;1.85;;;1.20;;
65665;SDS011;52365;47.464;18.976;2022-07-05T03:29:27;3.37;;;1.30;;
65665;SDS011;52365;47.464;18.976;2022-07-05T03:30:05;2.70;;;1.42;;
65665;SDS011;52365;47.464;18.976;2022-07-05T03:30:41;2.72;;;1.37;;
65665;SDS011;52365;47.464;18.976;2022-07-05T03:31:17;2.78;;;1.40;;
65665;SDS011;52365;47.464;18.976;2022-07-05T03:31:53;2.58;;;1.40;;
65665;SDS011;52365;47.464;18.976;2022-07-05T03:32:29;2.90;;;1.55;;
65665;SDS011;52365;47.464;18.976;2022-07-05T03:33:05;2.50;;;1.30;;
65665;SDS011;52365;47.464;18.976;2022-07-05T03:33:41;2.62;;;1.30;;
65665;SDS011;52365;47.464;18.976;2022-07-05T03:34:17;2.85;;;1.50;;
65665;SDS011;52365;47.464;18.976;2022-07-05T03:34:54;2.75;;;1.42;;
65665;SDS011;52365;47.464;18.976;2022-07-05T03:35:30;2.45;;;1.27;;
65665;SDS011;52365;47.464;18.976;2022-07-05T03:36:06;2.60;;;1.53;;
65665;SDS011;52365;47.464;18.976;2022-07-05T03:36:42;1.90;;;1.40;;
65665;SDS011;52365;47.464;18.976;2022-07-05T03:37:18;4.40;;;1.50;;
65665;SDS011;52365;47.464;18.976;2022-07-05T03:37:54;3.28;;;1.48;;